sensor_id;sensor_type;location;lat;lon;timestamp;temperature;humidity
64939;DHT22;51453;47.738;7.420;2024-01-30T00:01:15;3.90;99.90
64939;DHT22;51453;47.738;7.420;2024-01-30T00:03:41;3.80;99.90
64939;DHT22;51453;47.738;7.420;2024-01-30T00:06:10;3.70;99.90
64939;DHT22;51453;47.738;7.420;2024-01-30T00:08:35;3.80;99.90
64939;DHT22;51453;47.738;7.420;2024-01-30T00:11:01;3.90;99.90
64939;DHT22;51453;47.738;7.420;2024-01-30T00:13:27;3.80;99.90
64939;DHT22;51453;47.738;7.420;2024-01-30T00:15:52;3.80;99.90
64939;DHT22;51453;47.738;7.420;2024-01-30T00:18:18;3.80;99.90
64939;DHT22;51453;47.738;7.420;2024-01-30T00:20:44;3.80;99.90
64939;DHT22;51453;47.738;7.420;2024-01-30T00:23:09;3.80;99.90
64939;DHT22;51453;47.738;7.420;2024-01-30T00:25:35;3.90;99.90
64939;DHT22;51453;47.738;7.420;2024-01-30T00:28:01;3.90;99.90
64939;DHT22;51453;47.738;7.420;2024-01-30T00:30:26;4.00;99.90
64939;DHT22;51453;47.738;7.420;2024-01-30T00:32:53;4.00;99.90
64939;DHT22;51453;47.738;7.420;2024-01-30T00:35:18;4.00;99.90
64939;DHT22;51453;47.738;7.420;2024-01-30T00:37:44;4.00;99.90
64939;DHT22;51453;47.738;7.420;2024-01-30T00:40:10;4.00;99.90
64939;DHT22;51453;47.738;7.420;2024-01-30T00:42:43;4.00;99.90
64939;DHT22;51453;47.738;7.420;2024-01-30T00:45:16;4.00;99.90
64939;DHT22;51453;47.738;7.420;2024-01-30T00:47:42;4.00;99.90
64939;DHT22;51453;47.738;7.420;2024-01-30T00:50:08;3.90;99.90
64939;DHT22;51453;47.738;7.420;2024-01-30T00:52:34;3.90;99.90
64939;DHT22;51453;47.738;7.420;2024-01-30T00:55:00;3.80;99.90
64939;DHT22;51453;47.738;7.420;2024-01-30T00:57:25;3.80;99.90
64939;DHT22;51453;47.738;7.420;2024-01-30T00:59:52;3.80;99.90
64939;DHT22;51453;47.738;7.420;2024-01-30T01:02:18;3.70;99.90
64939;DHT22;51453;47.738;7.420;2024-01-30T01:04:44;3.70;99.90
64939;DHT22;51453;47.738;7.420;2024-01-30T01:07:10;3.70;99.90
64939;DHT22;51453;47.738;7.420;2024-01-30T01:09:36;3.80;99.90
64939;DHT22;51453;47.738;7.420;2024-01-30T01:12:02;3.70;99.90
64939;DHT22;51453;47.738;7.420;2024-01-30T01:14:28;3.70;99.90
64939;DHT22;51453;47.738;7.420;2024-01-30T01:16:53;3.70;99.90
64939;DHT22;51453;47.738;7.420;2024-01-30T01:19:19;3.60;99.90
64939;DHT22;51453;47.738;7.420;2024-01-30T01:21:44;3.60;99.90
64939;DHT22;51453;47.738;7.420;2024-01-30T01:24:10;3.50;99.90
64939;DHT22;51453;47.738;7.420;2024-01-30T01:26:36;3.60;99.90
64939;DHT22;51453;47.738;7.420;2024-01-30T01:29:01;3.60;99.90
64939;DHT22;51453;47.738;7.420;2024-01-30T01:31:29;3.60;99.90
64939;DHT22;51453;47.738;7.420;2024-01-30T01:33:55;3.70;99.90
64939;DHT22;51453;47.738;7.420;2024-01-30T01:36:21;3.60;99.90
64939;DHT22;51453;47.738;7.420;2024-01-30T01:38:46;3.60;99.90
64939;DHT22;51453;47.738;7.420;2024-01-30T01:41:12;3.60;99.90
64939;DHT22;51453;47.738;7.420;2024-01-30T01:43:37;3.60;99.90
64939;DHT22;51453;47.738;7.420;2024-01-30T01:46:05;3.60;99.90
64939;DHT22;51453;47.738;7.420;2024-01-30T01:48:32;3.70;99.90
64939;DHT22;51453;47.738;7.420;2024-01-30T01:50:58;3.70;99.90
64939;DHT22;51453;47.738;7.420;2024-01-30T01:53:24;3.70;99.90
64939;DHT22;51453;47.738;7.420;2024-01-30T01:55:51;3.60;99.90
64939;DHT22;51453;47.738;7.420;2024-01-30T01:58:19;3.60;99.90
64939;DHT22;51453;47.738;7.420;2024-01-30T02:00:46;3.60;99.90
64939;DHT22;51453;47.738;7.420;2024-01-30T02:03:13;3.50;99.90
64939;DHT22;51453;47.738;7.420;2024-01-30T02:05:40;3.60;99.90
64939;DHT22;51453;47.738;7.420;2024-01-30T02:08:06;3.50;99.90
64939;DHT22;51453;47.738;7.420;2024-01-30T02:10:34;3.50;99.90
64939;DHT22;51453;47.738;7.420;2024-01-30T02:12:59;3.60;99.90
64939;DHT22;51453;47.738;7.420;2024-01-30T02:15:25;3.70;99.90
64939;DHT22;51453;47.738;7.420;2024-01-30T02:17:51;3.70;99.90
64939;DHT22;51453;47.738;7.420;2024-01-30T02:20:17;3.70;99.90
64939;DHT22;51453;47.738;7.420;2024-01-30T02:22:43;3.70;99.90
64939;DHT22;51453;47.738;7.420;2024-01-30T02:25:08;3.60;99.90
64939;DHT22;51453;47.738;7.420;2024-01-30T02:27:34;3.60;99.90
64939;DHT22;51453;47.738;7.420;2024-01-30T02:30:00;3.60;99.90
64939;DHT22;51453;47.738;7.420;2024-01-30T02:32:25;3.50;99.90
64939;DHT22;51453;47.738;7.420;2024-01-30T02:34:51;3.50;99.90
64939;DHT22;51453;47.738;7.420;2024-01-30T02:37:17;3.50;99.90
64939;DHT22;51453;47.738;7.420;2024-01-30T02:39:42;3.40;99.90
64939;DHT22;51453;47.738;7.420;2024-01-30T02:42:08;3.40;99.90
64939;DHT22;51453;47.738;7.420;2024-01-30T02:44:33;3.40;99.90
64939;DHT22;51453;47.738;7.420;2024-01-30T02:46:59;3.40;99.90
64939;DHT22;51453;47.738;7.420;2024-01-30T02:49:25;3.30;99.90
64939;DHT22;51453;47.738;7.420;2024-01-30T02:51:52;3.30;99.90
64939;DHT22;51453;47.738;7.420;2024-01-30T02:54:18;3.30;99.90
64939;DHT22;51453;47.738;7.420;2024-01-30T02:56:43;3.30;99.90
64939;DHT22;51453;47.738;7.420;2024-01-30T02:59:09;3.20;99.90
64939;DHT22;51453;47.738;7.420;2024-01-30T03:01:45;3.10;99.90
64939;DHT22;51453;47.738;7.420;2024-01-30T03:04:11;3.10;99.90
64939;DHT22;51453;47.738;7.420;2024-01-30T03:06:37;3.00;99.90
64939;DHT22;51453;47.738;7.420;2024-01-30T03:09:03;3.00;99.90
64939;DHT22;51453;47.738;7.420;2024-01-30T03:11:30;3.00;99.90
64939;DHT22;51453;47.738;7.420;2024-01-30T03:13:56;2.90;99.90
64939;DHT22;51453;47.738;7.420;2024-01-30T03:16:22;3.00;99.90
64939;DHT22;51453;47.738;7.420;2024-01-30T03:18:48;3.00;99.90
64939;DHT22;51453;47.738;7.420;2024-01-30T03:21:14;3.00;99.90
64939;DHT22;51453;47.738;7.420;2024-01-30T03:23:39;2.90;99.90
64939;DHT22;51453;47.738;7.420;2024-01-30T03:26:05;2.90;99.90
64939;DHT22;51453;47.738;7.420;2024-01-30T03:28:32;2.80;99.90
64939;DHT22;51453;47.738;7.420;2024-01-30T03:30:57;2.70;99.90
64939;DHT22;51453;47.738;7.420;2024-01-30T03:33:23;2.70;99.90
64939;DHT22;51453;47.738;7.420;2024-01-30T03:35:48;2.60;99.90
64939;DHT22;51453;47.738;7.420;2024-01-30T03:38:14;2.70;99.90
64939;DHT22;51453;47.738;7.420;2024-01-30T03:40:40;2.70;99.90
64939;DHT22;51453;47.738;7.420;2024-01-30T03:43:05;2.60;99.90
64939;DHT22;51453;47.738;7.420;2024-01-30T03:45:31;2.60;99.90
64939;DHT22;51453;47.738;7.420;2024-01-30T03:47:56;2.60;99.90
64939;DHT22;51453;47.738;7.420;2024-01-30T03:50:22;2.60;99.90
64939;DHT22;51453;47.738;7.420;2024-01-30T03:52:48;2.60;99.90
64939;DHT22;51453;47.738;7.420;2024-01-30T03:55:15;2.60;99.90
64939;DHT22;51453;47.738;7.420;2024-01-30T03:57:40;2.50;99.90
64939;DHT22;51453;47.738;7.420;2024-01-30T04:00:06;2.60;99.90
64939;DHT22;51453;47.738;7.420;2024-01-30T04:02:32;2.60;99.90
64939;DHT22;51453;47.738;7.420;2024-01-30T04:04:58;2.60;99.90
64939;DHT22;51453;47.738;7.420;2024-01-30T04:07:24;2.70;99.90
64939;DHT22;51453;47.738;7.420;2024-01-30T04:09:49;2.70;99.90
64939;DHT22;51453;47.738;7.420;2024-01-30T04:12:15;2.60;99.90
64939;DHT22;51453;47.738;7.420;2024-01-30T04:14:40;2.60;99.90
64939;DHT22;51453;47.738;7.420;2024-01-30T04:17:06;2.50;99.90
64939;DHT22;51453;47.738;7.420;2024-01-30T04:19:32;2.50;99.90
64939;DHT22;51453;47.738;7.420;2024-01-30T04:21:57;2.60;99.90
64939;DHT22;51453;47.738;7.420;2024-01-30T04:24:23;2.50;99.90
64939;DHT22;51453;47.738;7.420;2024-01-30T04:26:48;2.50;99.90
64939;DHT22;51453;47.738;7.420;2024-01-30T04:29:14;2.50;99.90
64939;DHT22;51453;47.738;7.420;2024-01-30T04:31:39;2.60;99.90
64939;DHT22;51453;47.738;7.420;2024-01-30T04:34:05;2.50;99.90
64939;DHT22;51453;47.738;7.420;2024-01-30T04:36:31;2.60;99.90
64939;DHT22;51453;47.738;7.420;2024-01-30T04:38:56;2.60;99.90
64939;DHT22;51453;47.738;7.420;2024-01-30T04:41:22;2.50;99.90
64939;DHT22;51453;47.738;7.420;2024-01-30T04:43:47;2.50;99.90
64939;DHT22;51453;47.738;7.420;2024-01-30T04:46:13;2.60;99.90
64939;DHT22;51453;47.738;7.420;2024-01-30T04:48:39;2.50;99.90
64939;DHT22;51453;47.738;7.420;2024-01-30T04:51:04;2.60;99.90
64939;DHT22;51453;47.738;7.420;2024-01-30T04:53:30;2.50;99.90
64939;DHT22;51453;47.738;7.420;2024-01-30T04:55:56;2.50;99.90
64939;DHT22;51453;47.738;7.420;2024-01-30T04:58:22;2.50;99.90
64939;DHT22;51453;47.738;7.420;2024-01-30T05:00:48;2.50;99.90
64939;DHT22;51453;47.738;7.420;2024-01-30T05:03:17;2.50;99.90
64939;DHT22;51453;47.738;7.420;2024-01-30T05:05:43;2.50;99.90
64939;DHT22;51453;47.738;7.420;2024-01-30T05:08:08;2.50;99.90
64939;DHT22;51453;47.738;7.420;2024-01-30T05:10:34;2.50;99.90
64939;DHT22;51453;47.738;7.420;2024-01-30T05:13:00;2.40;99.90
64939;DHT22;51453;47.738;7.420;2024-01-30T05:15:25;2.50;99.90
64939;DHT22;51453;47.738;7.420;2024-01-30T05:17:51;2.50;99.90
64939;DHT22;51453;47.738;7.420;2024-01-30T05:20:17;2.40;99.90
64939;DHT22;51453;47.738;7.420;2024-01-30T05:22:43;2.50;99.90
64939;DHT22;51453;47.738;7.420;2024-01-30T05:25:11;2.50;99.90
64939;DHT22;51453;47.738;7.420;2024-01-30T05:27:37;2.60;99.90
64939;DHT22;51453;47.738;7.420;2024-01-30T05:30:04;2.60;99.90
64939;DHT22;51453;47.738;7.420;2024-01-30T05:32:29;2.60;99.90
64939;DHT22;51453;47.738;7.420;2024-01-30T05:34:55;2.60;99.90
64939;DHT22;51453;47.738;7.420;2024-01-30T05:37:21;2.50;99.90
64939;DHT22;51453;47.738;7.420;2024-01-30T05:39:46;2.60;99.90
64939;DHT22;51453;47.738;7.420;2024-01-30T05:42:12;2.50;99.90
64939;DHT22;51453;47.738;7.420;2024-01-30T05:44:37;2.50;99.90
64939;DHT22;51453;47.738;7.420;2024-01-30T05:47:03;2.40;99.90
64939;DHT22;51453;47.738;7.420;2024-01-30T05:49:29;2.40;99.90
64939;DHT22;51453;47.738;7.420;2024-01-30T05:51:54;2.40;99.90
64939;DHT22;51453;47.738;7.420;2024-01-30T05:54:20;2.40;99.90
64939;DHT22;51453;47.738;7.420;2024-01-30T05:56:45;2.40;99.90
64939;DHT22;51453;47.738;7.420;2024-01-30T05:59:11;2.40;99.90
64939;DHT22;51453;47.738;7.420;2024-01-30T06:01:37;2.40;99.90
64939;DHT22;51453;47.738;7.420;2024-01-30T06:04:02;2.40;99.90
64939;DHT22;51453;47.738;7.420;2024-01-30T06:06:28;2.40;99.90
64939;DHT22;51453;47.738;7.420;2024-01-30T06:08:54;2.40;99.90
64939;DHT22;51453;47.738;7.420;2024-01-30T06:11:21;2.40;99.90
64939;DHT22;51453;47.738;7.420;2024-01-30T06:13:47;2.40;99.90
64939;DHT22;51453;47.738;7.420;2024-01-30T06:16:12;2.30;99.90
64939;DHT22;51453;47.738;7.420;2024-01-30T06:18:38;2.40;99.90
64939;DHT22;51453;47.738;7.420;2024-01-30T06:21:04;2.40;99.90
64939;DHT22;51453;47.738;7.420;2024-01-30T06:23:30;2.30;99.90
64939;DHT22;51453;47.738;7.420;2024-01-30T06:25:56;2.30;99.90
64939;DHT22;51453;47.738;7.420;2024-01-30T06:28:21;2.20;99.90
64939;DHT22;51453;47.738;7.420;2024-01-30T06:30:47;2.20;99.90
64939;DHT22;51453;47.738;7.420;2024-01-30T06:33:13;2.10;99.90
64939;DHT22;51453;47.738;7.420;2024-01-30T06:35:40;2.10;99.90
64939;DHT22;51453;47.738;7.420;2024-01-30T06:38:06;2.20;99.90
64939;DHT22;51453;47.738;7.420;2024-01-30T06:40:32;2.20;99.90
64939;DHT22;51453;47.738;7.420;2024-01-30T06:42:57;2.20;99.90
64939;DHT22;51453;47.738;7.420;2024-01-30T06:45:23;2.30;99.90
64939;DHT22;51453;47.738;7.420;2024-01-30T06:47:48;2.20;99.90
64939;DHT22;51453;47.738;7.420;2024-01-30T06:50:14;2.30;99.90
64939;DHT22;51453;47.738;7.420;2024-01-30T06:52:40;2.20;99.90
64939;DHT22;51453;47.738;7.420;2024-01-30T06:55:05;2.20;99.90
64939;DHT22;51453;47.738;7.420;2024-01-30T06:57:31;2.10;99.90
64939;DHT22;51453;47.738;7.420;2024-01-30T06:59:57;2.00;99.90
64939;DHT22;51453;47.738;7.420;2024-01-30T07:02:23;2.00;99.90
64939;DHT22;51453;47.738;7.420;2024-01-30T07:04:48;2.00;99.90
64939;DHT22;51453;47.738;7.420;2024-01-30T07:07:14;2.10;99.90
64939;DHT22;51453;47.738;7.420;2024-01-30T07:09:41;2.10;99.90
64939;DHT22;51453;47.738;7.420;2024-01-30T07:12:06;2.10;99.90
64939;DHT22;51453;47.738;7.420;2024-01-30T07:14:32;2.10;99.90
64939;DHT22;51453;47.738;7.420;2024-01-30T07:16:58;2.10;99.90
64939;DHT22;51453;47.738;7.420;2024-01-30T07:19:24;2.10;99.90
64939;DHT22;51453;47.738;7.420;2024-01-30T07:21:49;2.10;99.90
64939;DHT22;51453;47.738;7.420;2024-01-30T07:24:15;2.10;99.90
64939;DHT22;51453;47.738;7.420;2024-01-30T07:26:40;2.20;99.90
64939;DHT22;51453;47.738;7.420;2024-01-30T07:29:06;2.20;99.90
64939;DHT22;51453;47.738;7.420;2024-01-30T07:31:32;2.20;99.90
64939;DHT22;51453;47.738;7.420;2024-01-30T07:33:57;2.30;99.90
64939;DHT22;51453;47.738;7.420;2024-01-30T07:36:23;2.40;99.90
64939;DHT22;51453;47.738;7.420;2024-01-30T07:38:49;2.40;99.90
64939;DHT22;51453;47.738;7.420;2024-01-30T07:41:14;2.40;99.90
64939;DHT22;51453;47.738;7.420;2024-01-30T07:43:40;2.50;99.90
64939;DHT22;51453;47.738;7.420;2024-01-30T07:46:05;2.50;99.90
64939;DHT22;51453;47.738;7.420;2024-01-30T07:48:33;2.60;99.90
64939;DHT22;51453;47.738;7.420;2024-01-30T07:50:59;2.60;99.90
64939;DHT22;51453;47.738;7.420;2024-01-30T07:53:25;2.70;99.90
64939;DHT22;51453;47.738;7.420;2024-01-30T07:55:51;2.70;99.90
64939;DHT22;51453;47.738;7.420;2024-01-30T07:58:17;2.80;99.90
64939;DHT22;51453;47.738;7.420;2024-01-30T08:00:43;2.80;99.90
64939;DHT22;51453;47.738;7.420;2024-01-30T08:03:08;2.80;99.90
64939;DHT22;51453;47.738;7.420;2024-01-30T08:05:34;2.90;99.90
64939;DHT22;51453;47.738;7.420;2024-01-30T08:07:59;3.00;99.90
64939;DHT22;51453;47.738;7.420;2024-01-30T08:10:25;3.10;99.90
64939;DHT22;51453;47.738;7.420;2024-01-30T08:12:50;3.20;99.90
64939;DHT22;51453;47.738;7.420;2024-01-30T08:15:16;3.20;99.90
64939;DHT22;51453;47.738;7.420;2024-01-30T08:17:42;3.30;99.90
64939;DHT22;51453;47.738;7.420;2024-01-30T08:20:08;3.30;99.90
64939;DHT22;51453;47.738;7.420;2024-01-30T08:22:37;3.40;99.90
64939;DHT22;51453;47.738;7.420;2024-01-30T08:25:03;3.50;99.90
64939;DHT22;51453;47.738;7.420;2024-01-30T08:27:29;3.50;99.90
64939;DHT22;51453;47.738;7.420;2024-01-30T08:29:54;3.60;99.90
64939;DHT22;51453;47.738;7.420;2024-01-30T08:32:20;3.70;99.90
64939;DHT22;51453;47.738;7.420;2024-01-30T08:34:46;3.70;99.90
64939;DHT22;51453;47.738;7.420;2024-01-30T08:37:11;3.70;99.90
64939;DHT22;51453;47.738;7.420;2024-01-30T08:39:37;3.80;99.90
64939;DHT22;51453;47.738;7.420;2024-01-30T08:42:03;3.80;99.90
64939;DHT22;51453;47.738;7.420;2024-01-30T08:44:29;3.90;99.90
64939;DHT22;51453;47.738;7.420;2024-01-30T08:46:54;4.00;99.90
64939;DHT22;51453;47.738;7.420;2024-01-30T08:49:20;4.10;99.90
64939;DHT22;51453;47.738;7.420;2024-01-30T08:51:46;4.20;99.90
64939;DHT22;51453;47.738;7.420;2024-01-30T08:54:12;4.30;99.90
64939;DHT22;51453;47.738;7.420;2024-01-30T08:56:38;4.40;99.90
64939;DHT22;51453;47.738;7.420;2024-01-30T08:59:03;4.40;99.90
64939;DHT22;51453;47.738;7.420;2024-01-30T09:01:29;4.50;99.90
64939;DHT22;51453;47.738;7.420;2024-01-30T09:03:55;4.50;99.90
64939;DHT22;51453;47.738;7.420;2024-01-30T09:06:20;4.60;99.90
64939;DHT22;51453;47.738;7.420;2024-01-30T09:08:46;4.60;99.90
64939;DHT22;51453;47.738;7.420;2024-01-30T09:11:13;4.80;99.90
64939;DHT22;51453;47.738;7.420;2024-01-30T09:13:38;4.80;99.90
64939;DHT22;51453;47.738;7.420;2024-01-30T09:16:05;4.80;99.90
64939;DHT22;51453;47.738;7.420;2024-01-30T09:18:31;4.80;99.90
64939;DHT22;51453;47.738;7.420;2024-01-30T09:20:56;4.90;99.90
64939;DHT22;51453;47.738;7.420;2024-01-30T09:23:22;4.90;99.90
64939;DHT22;51453;47.738;7.420;2024-01-30T09:25:48;5.00;99.90
64939;DHT22;51453;47.738;7.420;2024-01-30T09:28:13;5.00;99.90
64939;DHT22;51453;47.738;7.420;2024-01-30T09:30:39;5.10;99.90
64939;DHT22;51453;47.738;7.420;2024-01-30T09:33:05;5.10;99.90
64939;DHT22;51453;47.738;7.420;2024-01-30T09:35:31;5.20;99.90
64939;DHT22;51453;47.738;7.420;2024-01-30T09:37:57;5.30;99.90
64939;DHT22;51453;47.738;7.420;2024-01-30T09:40:24;5.30;99.90
64939;DHT22;51453;47.738;7.420;2024-01-30T09:42:54;5.30;99.90
64939;DHT22;51453;47.738;7.420;2024-01-30T09:45:23;5.30;99.90
64939;DHT22;51453;47.738;7.420;2024-01-30T09:47:49;5.40;99.90
64939;DHT22;51453;47.738;7.420;2024-01-30T09:50:15;5.40;99.90
64939;DHT22;51453;47.738;7.420;2024-01-30T09:52:41;5.50;99.90
64939;DHT22;51453;47.738;7.420;2024-01-30T09:55:08;5.50;99.90
64939;DHT22;51453;47.738;7.420;2024-01-30T09:57:35;5.60;99.90
64939;DHT22;51453;47.738;7.420;2024-01-30T10:00:02;5.40;99.90
64939;DHT22;51453;47.738;7.420;2024-01-30T10:02:28;5.40;99.90
64939;DHT22;51453;47.738;7.420;2024-01-30T10:04:54;5.40;99.90
64939;DHT22;51453;47.738;7.420;2024-01-30T10:07:19;5.40;99.90
64939;DHT22;51453;47.738;7.420;2024-01-30T10:09:45;5.40;99.90
64939;DHT22;51453;47.738;7.420;2024-01-30T10:12:12;5.50;99.90
64939;DHT22;51453;47.738;7.420;2024-01-30T10:14:41;5.70;99.90
64939;DHT22;51453;47.738;7.420;2024-01-30T10:17:11;6.00;99.90
64939;DHT22;51453;47.738;7.420;2024-01-30T10:19:41;6.20;99.90
64939;DHT22;51453;47.738;7.420;2024-01-30T10:22:07;6.30;99.90
64939;DHT22;51453;47.738;7.420;2024-01-30T10:24:34;6.50;99.90
64939;DHT22;51453;47.738;7.420;2024-01-30T10:26:59;6.60;99.90
64939;DHT22;51453;47.738;7.420;2024-01-30T10:29:26;6.70;99.90
64939;DHT22;51453;47.738;7.420;2024-01-30T10:34:24;7.20;99.90
64939;DHT22;51453;47.738;7.420;2024-01-30T10:36:50;7.40;99.90
64939;DHT22;51453;47.738;7.420;2024-01-30T10:39:21;7.50;99.90
64939;DHT22;51453;47.738;7.420;2024-01-30T10:41:48;7.40;99.90
64939;DHT22;51453;47.738;7.420;2024-01-30T10:44:19;7.30;99.90
64939;DHT22;51453;47.738;7.420;2024-01-30T10:46:50;7.40;99.90
64939;DHT22;51453;47.738;7.420;2024-01-30T10:49:16;7.60;99.90
64939;DHT22;51453;47.738;7.420;2024-01-30T10:51:43;7.80;99.90
64939;DHT22;51453;47.738;7.420;2024-01-30T10:54:09;8.00;99.90
64939;DHT22;51453;47.738;7.420;2024-01-30T10:56:35;8.20;99.90
64939;DHT22;51453;47.738;7.420;2024-01-30T10:59:02;8.20;99.90
64939;DHT22;51453;47.738;7.420;2024-01-30T11:01:29;8.40;99.90
64939;DHT22;51453;47.738;7.420;2024-01-30T11:03:55;8.70;99.90
64939;DHT22;51453;47.738;7.420;2024-01-30T11:06:23;9.10;99.90
64939;DHT22;51453;47.738;7.420;2024-01-30T11:09:05;9.40;99.90
64939;DHT22;51453;47.738;7.420;2024-01-30T11:11:52;9.50;99.90
64939;DHT22;51453;47.738;7.420;2024-01-30T11:14:23;9.80;99.90
64939;DHT22;51453;47.738;7.420;2024-01-30T11:16:50;10.00;99.90
64939;DHT22;51453;47.738;7.420;2024-01-30T11:19:22;9.90;99.90
64939;DHT22;51453;47.738;7.420;2024-01-30T11:21:50;10.00;99.90
64939;DHT22;51453;47.738;7.420;2024-01-30T11:24:22;10.30;99.90
64939;DHT22;51453;47.738;7.420;2024-01-30T11:26:49;10.50;99.90
64939;DHT22;51453;47.738;7.420;2024-01-30T11:29:17;10.50;99.90
64939;DHT22;51453;47.738;7.420;2024-01-30T11:31:57;10.50;99.90
64939;DHT22;51453;47.738;7.420;2024-01-30T11:34:24;10.50;99.90
64939;DHT22;51453;47.738;7.420;2024-01-30T11:36:56;10.30;99.90
64939;DHT22;51453;47.738;7.420;2024-01-30T11:39:29;10.40;99.90
64939;DHT22;51453;47.738;7.420;2024-01-30T11:41:55;10.60;99.90
64939;DHT22;51453;47.738;7.420;2024-01-30T11:44:22;10.50;99.90
64939;DHT22;51453;47.738;7.420;2024-01-30T11:46:51;10.70;99.90
64939;DHT22;51453;47.738;7.420;2024-01-30T11:49:18;10.90;99.90
64939;DHT22;51453;47.738;7.420;2024-01-30T11:51:45;11.00;99.90
64939;DHT22;51453;47.738;7.420;2024-01-30T11:54:11;11.00;99.90
64939;DHT22;51453;47.738;7.420;2024-01-30T11:56:37;10.90;99.90
64939;DHT22;51453;47.738;7.420;2024-01-30T11:59:04;10.80;99.90
64939;DHT22;51453;47.738;7.420;2024-01-30T12:01:31;10.70;99.90
64939;DHT22;51453;47.738;7.420;2024-01-30T12:03:58;10.90;99.90
64939;DHT22;51453;47.738;7.420;2024-01-30T12:06:24;11.10;99.90
64939;DHT22;51453;47.738;7.420;2024-01-30T12:09:02;11.20;99.90
64939;DHT22;51453;47.738;7.420;2024-01-30T12:11:41;11.30;99.90
64939;DHT22;51453;47.738;7.420;2024-01-30T12:14:08;11.10;99.90
64939;DHT22;51453;47.738;7.420;2024-01-30T12:16:34;11.00;99.90
64939;DHT22;51453;47.738;7.420;2024-01-30T12:19:00;11.40;99.90
64939;DHT22;51453;47.738;7.420;2024-01-30T12:21:29;11.50;99.90
64939;DHT22;51453;47.738;7.420;2024-01-30T12:23:56;11.40;99.90
64939;DHT22;51453;47.738;7.420;2024-01-30T12:26:24;11.30;99.90
64939;DHT22;51453;47.738;7.420;2024-01-30T12:28:53;11.30;99.90
64939;DHT22;51453;47.738;7.420;2024-01-30T12:31:25;11.30;99.90
64939;DHT22;51453;47.738;7.420;2024-01-30T12:33:52;11.30;99.90
64939;DHT22;51453;47.738;7.420;2024-01-30T12:36:18;11.50;99.90
64939;DHT22;51453;47.738;7.420;2024-01-30T12:38:44;11.40;99.90
64939;DHT22;51453;47.738;7.420;2024-01-30T12:41:10;11.50;99.90
64939;DHT22;51453;47.738;7.420;2024-01-30T12:43:36;11.60;99.90
64939;DHT22;51453;47.738;7.420;2024-01-30T12:46:03;11.70;99.90
64939;DHT22;51453;47.738;7.420;2024-01-30T12:48:28;11.80;99.90
64939;DHT22;51453;47.738;7.420;2024-01-30T12:50:56;12.00;99.90
64939;DHT22;51453;47.738;7.420;2024-01-30T12:53:22;12.10;99.90
64939;DHT22;51453;47.738;7.420;2024-01-30T12:55:47;12.20;99.90
64939;DHT22;51453;47.738;7.420;2024-01-30T12:58:15;12.40;99.90
64939;DHT22;51453;47.738;7.420;2024-01-30T13:00:41;12.60;99.90
64939;DHT22;51453;47.738;7.420;2024-01-30T13:03:09;12.60;99.90
64939;DHT22;51453;47.738;7.420;2024-01-30T13:05:35;12.50;99.90
64939;DHT22;51453;47.738;7.420;2024-01-30T13:08:01;12.40;99.90
64939;DHT22;51453;47.738;7.420;2024-01-30T13:10:26;12.50;99.90
64939;DHT22;51453;47.738;7.420;2024-01-30T13:12:52;12.50;99.90
64939;DHT22;51453;47.738;7.420;2024-01-30T13:15:18;12.50;99.90
64939;DHT22;51453;47.738;7.420;2024-01-30T13:17:44;12.50;99.90
64939;DHT22;51453;47.738;7.420;2024-01-30T13:20:13;12.50;99.90
64939;DHT22;51453;47.738;7.420;2024-01-30T13:22:43;12.60;99.90
64939;DHT22;51453;47.738;7.420;2024-01-30T13:25:08;12.70;99.90
64939;DHT22;51453;47.738;7.420;2024-01-30T13:27:34;12.70;99.90
64939;DHT22;51453;47.738;7.420;2024-01-30T13:30:00;12.70;99.90
64939;DHT22;51453;47.738;7.420;2024-01-30T13:32:25;12.40;99.90
64939;DHT22;51453;47.738;7.420;2024-01-30T13:34:51;12.50;99.90
64939;DHT22;51453;47.738;7.420;2024-01-30T13:37:17;12.10;99.90
64939;DHT22;51453;47.738;7.420;2024-01-30T13:39:42;12.00;99.90
64939;DHT22;51453;47.738;7.420;2024-01-30T13:42:08;12.00;99.90
64939;DHT22;51453;47.738;7.420;2024-01-30T13:44:35;11.90;99.90
64939;DHT22;51453;47.738;7.420;2024-01-30T13:47:01;11.80;99.90
64939;DHT22;51453;47.738;7.420;2024-01-30T13:49:26;11.80;99.90
64939;DHT22;51453;47.738;7.420;2024-01-30T13:51:52;11.70;99.90
64939;DHT22;51453;47.738;7.420;2024-01-30T13:54:18;11.70;99.90
64939;DHT22;51453;47.738;7.420;2024-01-30T13:56:44;11.70;99.90
64939;DHT22;51453;47.738;7.420;2024-01-30T13:59:09;11.60;99.90
64939;DHT22;51453;47.738;7.420;2024-01-30T14:01:35;11.50;99.90
64939;DHT22;51453;47.738;7.420;2024-01-30T14:04:00;11.30;99.90
64939;DHT22;51453;47.738;7.420;2024-01-30T14:06:26;11.30;99.90
64939;DHT22;51453;47.738;7.420;2024-01-30T14:08:52;11.40;99.90
64939;DHT22;51453;47.738;7.420;2024-01-30T14:11:17;11.40;99.90
64939;DHT22;51453;47.738;7.420;2024-01-30T14:13:43;11.40;99.90
64939;DHT22;51453;47.738;7.420;2024-01-30T14:16:09;11.40;99.90
64939;DHT22;51453;47.738;7.420;2024-01-30T14:18:35;11.40;99.90
64939;DHT22;51453;47.738;7.420;2024-01-30T14:21:00;11.50;99.90
64939;DHT22;51453;47.738;7.420;2024-01-30T14:23:26;11.50;99.90
64939;DHT22;51453;47.738;7.420;2024-01-30T14:25:51;11.50;99.90
64939;DHT22;51453;47.738;7.420;2024-01-30T14:28:17;11.50;99.90
64939;DHT22;51453;47.738;7.420;2024-01-30T14:30:43;11.60;99.90
64939;DHT22;51453;47.738;7.420;2024-01-30T14:33:09;11.60;99.90
64939;DHT22;51453;47.738;7.420;2024-01-30T14:35:34;11.30;99.90
64939;DHT22;51453;47.738;7.420;2024-01-30T14:38:00;11.20;99.90
64939;DHT22;51453;47.738;7.420;2024-01-30T14:40:26;11.20;99.90
64939;DHT22;51453;47.738;7.420;2024-01-30T14:42:52;11.10;99.90
64939;DHT22;51453;47.738;7.420;2024-01-30T14:45:18;11.00;99.90
64939;DHT22;51453;47.738;7.420;2024-01-30T14:47:44;10.90;99.90
64939;DHT22;51453;47.738;7.420;2024-01-30T14:50:10;10.90;99.90
64939;DHT22;51453;47.738;7.420;2024-01-30T14:52:36;11.00;99.90
64939;DHT22;51453;47.738;7.420;2024-01-30T14:55:02;10.90;99.90
64939;DHT22;51453;47.738;7.420;2024-01-30T14:57:28;10.80;99.90
64939;DHT22;51453;47.738;7.420;2024-01-30T14:59:54;10.80;99.90
64939;DHT22;51453;47.738;7.420;2024-01-30T15:02:19;10.70;99.90
64939;DHT22;51453;47.738;7.420;2024-01-30T15:04:45;10.70;99.90
64939;DHT22;51453;47.738;7.420;2024-01-30T15:07:11;10.60;99.90
64939;DHT22;51453;47.738;7.420;2024-01-30T15:09:36;10.50;99.90
64939;DHT22;51453;47.738;7.420;2024-01-30T15:12:02;10.40;99.90
64939;DHT22;51453;47.738;7.420;2024-01-30T15:14:28;10.30;99.90
64939;DHT22;51453;47.738;7.420;2024-01-30T15:16:53;10.30;99.90
64939;DHT22;51453;47.738;7.420;2024-01-30T15:19:19;10.30;99.90
64939;DHT22;51453;47.738;7.420;2024-01-30T15:21:45;10.20;99.90
64939;DHT22;51453;47.738;7.420;2024-01-30T15:24:10;10.10;99.90
64939;DHT22;51453;47.738;7.420;2024-01-30T15:26:40;10.10;99.90
64939;DHT22;51453;47.738;7.420;2024-01-30T15:29:06;10.00;99.90
64939;DHT22;51453;47.738;7.420;2024-01-30T15:31:32;9.90;99.90
64939;DHT22;51453;47.738;7.420;2024-01-30T15:33:57;9.90;99.90
64939;DHT22;51453;47.738;7.420;2024-01-30T15:36:23;9.80;99.90
64939;DHT22;51453;47.738;7.420;2024-01-30T15:38:49;9.80;99.90